Time;durP1;ratioP1;P1;durP2;ratioP2;P2;SDS_P1;SDS_P2;PMS_P1;PMS_P2;Temp;Humidity;BMP_temperature;BMP_pressure;BME280_temperature;BME280_humidity;BME280_pressure;Samples;Min_cycle;Max_cycle;Signal;HPM_P1;HPM_P2
2021/08/06 00:00:09;;;;;;;4.50;2.85;;;18.00;99.90;;;;;;5063260;28;20036;-61
2021/08/06 00:02:37;;;;;;;3.67;2.80;;;18.00;99.90;;;;;;5058776;28;20263;-60
2021/08/06 00:05:04;;;;;;;7.10;2.50;;;18.00;99.90;;;;;;5063483;28;20115;-57
2021/08/06 00:07:29;;;;;;;2.97;2.70;;;17.90;99.90;;;;;;5064236;28;20585;-59
2021/08/06 00:09:55;;;;;;;4.00;2.20;;;17.90;99.90;;;;;;5062333;28;22375;-60
2021/08/06 00:12:21;;;;;;;5.50;2.63;;;17.90;99.90;;;;;;5064680;28;20025;-60
2021/08/06 00:14:47;;;;;;;4.65;2.83;;;17.90;99.90;;;;;;5066624;28;20419;-60
2021/08/06 00:17:12;;;;;;;3.50;2.95;;;17.90;99.90;;;;;;5066105;28;20032;-60
2021/08/06 00:19:38;;;;;;;4.35;2.97;;;17.90;99.90;;;;;;5068631;28;20028;-60
2021/08/06 00:22:03;;;;;;;4.43;2.83;;;17.90;99.90;;;;;;5065911;28;20028;-61
2021/08/06 00:24:29;;;;;;;2.95;2.63;;;17.90;99.90;;;;;;5069936;28;20033;-61
2021/08/06 00:26:54;;;;;;;8.20;2.92;;;17.90;99.90;;;;;;5068126;28;20082;-60
2021/08/06 00:29:21;;;;;;;4.15;3.35;;;17.80;99.90;;;;;;5066529;28;20032;-60
2021/08/06 00:31:47;;;;;;;3.97;2.88;;;17.80;99.90;;;;;;5066726;28;20037;-60
2021/08/06 00:34:12;;;;;;;8.52;3.50;;;17.80;99.90;;;;;;5068311;28;20553;-60
2021/08/06 00:36:38;;;;;;;6.47;2.85;;;17.80;99.90;;;;;;5067470;28;20059;-61
2021/08/06 00:39:03;;;;;;;6.07;2.75;;;17.80;99.90;;;;;;5067504;28;20021;-61
2021/08/06 00:41:29;;;;;;;8.15;3.00;;;17.80;99.90;;;;;;5067794;28;20539;-61
2021/08/06 00:43:54;;;;;;;5.40;3.20;;;17.80;99.90;;;;;;5065692;28;20033;-59
2021/08/06 00:46:20;;;;;;;4.38;3.20;;;17.80;99.90;;;;;;5067114;28;20041;-61
2021/08/06 00:48:50;;;;;;;6.28;3.42;;;17.80;99.90;;;;;;5063888;28;20051;-61
2021/08/06 00:51:16;;;;;;;7.75;3.15;;;17.80;99.90;;;;;;5063523;28;20032;-60
2021/08/06 00:53:42;;;;;;;5.63;3.35;;;17.80;99.90;;;;;;5067479;28;20528;-60
2021/08/06 00:56:09;;;;;;;5.00;3.42;;;17.70;99.90;;;;;;5067071;28;20559;-60
2021/08/06 00:58:36;;;;;;;4.30;3.15;;;17.70;99.90;;;;;;5066866;28;20128;-60
2021/08/06 01:01:02;;;;;;;5.13;3.30;;;17.70;99.90;;;;;;5065802;28;20028;-60
2021/08/06 01:03:38;;;;;;;5.05;3.88;;;17.70;99.90;;;;;;5070332;28;20048;-61
2021/08/06 01:06:28;;;;;;;6.07;3.10;;;17.60;99.90;;;;;;5065350;28;20021;-59
2021/08/06 01:09:06;;;;;;;7.10;3.63;;;17.60;99.90;;;;;;5068827;28;20029;-60
2021/08/06 01:11:35;;;;;;;5.20;3.20;;;17.60;99.90;;;;;;5066322;28;20503;-60
2021/08/06 01:14:03;;;;;;;4.82;3.10;;;17.60;99.90;;;;;;5068555;28;20360;-60
2021/08/06 01:16:31;;;;;;;7.07;4.03;;;17.60;99.90;;;;;;5066615;28;20040;-60
2021/08/06 01:19:07;;;;;;;4.95;3.97;;;17.70;99.90;;;;;;5065508;28;20051;-59
2021/08/06 01:21:41;;;;;;;4.47;3.13;;;17.60;99.90;;;;;;5063691;28;20036;-61
2021/08/06 01:24:10;;;;;;;8.38;3.53;;;17.60;99.90;;;;;;5066210;28;20060;-60
2021/08/06 01:26:37;;;;;;;6.22;3.63;;;17.70;99.90;;;;;;5065508;28;20036;-60
2021/08/06 01:29:04;;;;;;;8.02;3.95;;;17.60;99.90;;;;;;5063777;28;20124;-60
2021/08/06 01:31:30;;;;;;;6.95;3.63;;;17.60;99.90;;;;;;5062604;28;20025;-59
2021/08/06 01:33:56;;;;;;;6.35;3.70;;;17.60;99.90;;;;;;5064009;28;20360;-60
2021/08/06 01:36:22;;;;;;;5.75;3.72;;;17.60;99.90;;;;;;5066381;28;20021;-60
2021/08/06 01:38:49;;;;;;;6.68;3.78;;;17.70;99.90;;;;;;5065227;28;20407;-60
2021/08/06 01:41:20;;;;;;;6.10;3.17;;;17.70;99.90;;;;;;5065009;28;20035;-60
2021/08/06 01:44:11;;;;;;;14.25;3.78;;;17.70;99.90;;;;;;5065306;28;20039;-59
2021/08/06 01:46:54;;;;;;;7.28;3.70;;;17.70;99.90;;;;;;5066108;28;20029;-60
2021/08/06 01:49:34;;;;;;;5.00;3.58;;;17.70;99.90;;;;;;5087135;22;20063;-56
2021/08/06 01:52:11;;;;;;;6.40;3.42;;;17.70;99.90;;;;;;5061339;28;20037;-58
2021/08/06 01:54:39;;;;;;;7.60;3.80;;;17.70;99.90;;;;;;5065460;28;20020;-59
2021/08/06 01:57:07;;;;;;;6.43;3.22;;;17.70;99.90;;;;;;5062720;28;20408;-61
2021/08/06 01:59:34;;;;;;;6.47;3.70;;;17.70;99.90;;;;;;5049150;28;20017;-59
2021/08/06 02:02:00;;;;;;;11.02;3.65;;;17.80;99.90;;;;;;5043400;28;20159;-61
2021/08/06 02:04:26;;;;;;;6.35;3.80;;;17.80;99.90;;;;;;5045828;28;20115;-58
2021/08/06 02:06:53;;;;;;;6.47;3.65;;;17.80;99.90;;;;;;5047118;28;20029;-60
2021/08/06 02:09:21;;;;;;;6.97;3.97;;;17.80;99.90;;;;;;5041176;28;20041;-58
2021/08/06 02:11:48;;;;;;;7.50;3.40;;;17.80;99.90;;;;;;5045322;28;20479;-59
2021/08/06 02:14:16;;;;;;;4.18;3.50;;;17.80;99.90;;;;;;5043749;28;20100;-59
2021/08/06 02:16:42;;;;;;;7.97;3.97;;;17.90;99.90;;;;;;5049136;28;20476;-59
2021/08/06 02:19:13;;;;;;;8.68;3.88;;;17.90;99.90;;;;;;5049744;28;20074;-59
2021/08/06 02:21:40;;;;;;;5.82;3.80;;;17.80;99.90;;;;;;5043731;28;20052;-58
2021/08/06 02:24:11;;;;;;;7.50;4.47;;;17.80;99.90;;;;;;5042507;28;20029;-59
2021/08/06 02:26:39;;;;;;;7.78;3.78;;;17.80;99.90;;;;;;5050426;28;20040;-61
2021/08/06 02:29:14;;;;;;;6.22;4.30;;;17.80;99.90;;;;;;5049237;28;20420;-62
2021/08/06 02:31:42;;;;;;;7.72;3.60;;;17.80;99.90;;;;;;5040008;28;20079;-60
2021/08/06 02:34:08;;;;;;;7.97;4.28;;;17.80;99.90;;;;;;5048607;28;20484;-57
2021/08/06 02:36:34;;;;;;;6.82;4.07;;;17.70;99.90;;;;;;5049775;28;20032;-56
2021/08/06 02:39:00;;;;;;;5.63;3.95;;;17.60;99.90;;;;;;5046751;28;20148;-61
2021/08/06 02:41:29;;;;;;;8.77;4.50;;;17.60;99.90;;;;;;5040600;28;20488;-62
2021/08/06 02:43:55;;;;;;;7.38;4.13;;;17.50;99.90;;;;;;5041127;28;20589;-60
2021/08/06 02:46:21;;;;;;;4.18;3.75;;;17.40;99.90;;;;;;5041300;28;20037;-62
2021/08/06 02:48:46;;;;;;;7.93;4.55;;;17.40;99.90;;;;;;5042788;28;20088;-62
2021/08/06 02:51:12;;;;;;;7.38;4.18;;;17.40;99.90;;;;;;5039981;28;20470;-58
2021/08/06 02:53:38;;;;;;;11.38;4.70;;;17.30;99.90;;;;;;5041952;28;20024;-62
2021/08/06 02:56:04;;;;;;;9.68;4.80;;;17.30;99.90;;;;;;5041250;28;20055;-62
2021/08/06 02:58:30;;;;;;;9.15;4.43;;;17.20;99.90;;;;;;5040579;28;20032;-61
2021/08/06 03:00:55;;;;;;;5.97;4.35;;;17.20;99.90;;;;;;5041009;28;20554;-62
2021/08/06 03:03:21;;;;;;;7.55;5.03;;;17.30;99.90;;;;;;5040871;28;20044;-63
2021/08/06 03:05:47;;;;;;;6.13;4.78;;;17.20;99.90;;;;;;5039377;28;20053;-62
2021/08/06 03:08:12;;;;;;;10.73;5.32;;;17.20;99.90;;;;;;5043110;28;20586;-61
2021/08/06 03:10:39;;;;;;;10.60;5.47;;;17.10;99.90;;;;;;5042317;28;20108;-60
2021/08/06 03:13:04;;;;;;;8.00;5.03;;;17.10;99.90;;;;;;5041452;28;20496;-61
2021/08/06 03:15:30;;;;;;;11.77;6.70;;;17.10;99.90;;;;;;5040658;28;20130;-55
2021/08/06 03:17:56;;;;;;;9.93;6.15;;;17.00;99.90;;;;;;5040150;28;20029;-62
2021/08/06 03:20:22;;;;;;;7.47;5.40;;;17.10;99.90;;;;;;5040677;28;20044;-60
2021/08/06 03:22:50;;;;;;;11.18;6.20;;;17.00;99.90;;;;;;5040910;28;20029;-61
2021/08/06 03:25:16;;;;;;;8.18;6.03;;;17.10;99.90;;;;;;5040517;28;20033;-63
2021/08/06 03:27:42;;;;;;;9.25;6.03;;;17.10;99.90;;;;;;5041172;28;20029;-63
2021/08/06 03:30:11;;;;;;;9.63;5.75;;;17.10;99.90;;;;;;5039547;28;20029;-62
2021/08/06 03:32:37;;;;;;;12.30;5.95;;;17.10;99.90;;;;;;5041965;28;20033;-62
2021/08/06 03:35:03;;;;;;;7.18;5.70;;;17.10;99.90;;;;;;5045901;28;20048;-60
2021/08/06 03:37:29;;;;;;;14.05;6.35;;;17.00;99.90;;;;;;5041107;28;20488;-58
2021/08/06 03:39:55;;;;;;;8.85;6.07;;;17.00;99.90;;;;;;5040662;28;20032;-63
2021/08/06 03:42:20;;;;;;;13.85;6.35;;;17.00;99.90;;;;;;5040687;28;20079;-59
2021/08/06 03:44:46;;;;;;;10.20;5.70;;;17.00;99.90;;;;;;5041651;28;20605;-62
2021/08/06 03:47:11;;;;;;;8.18;5.50;;;17.00;99.90;;;;;;5041430;28;20029;-62
2021/08/06 03:49:37;;;;;;;10.25;5.78;;;17.00;99.90;;;;;;5040864;28;20060;-62
2021/08/06 03:52:03;;;;;;;12.32;5.97;;;17.00;99.90;;;;;;5040185;28;20025;-56
2021/08/06 03:54:28;;;;;;;9.27;5.38;;;17.00;99.90;;;;;;5044964;28;20037;-62
2021/08/06 03:56:54;;;;;;;8.15;5.45;;;17.00;99.90;;;;;;5044447;28;20062;-57
2021/08/06 03:59:19;;;;;;;7.75;5.45;;;17.00;99.90;;;;;;5046330;28;20025;-61
2021/08/06 04:01:45;;;;;;;9.13;5.10;;;17.00;99.90;;;;;;5045074;28;20037;-57
2021/08/06 04:04:10;;;;;;;9.05;4.97;;;17.00;99.90;;;;;;5047854;28;20044;-61
2021/08/06 04:06:36;;;;;;;6.25;5.05;;;16.90;99.90;;;;;;5043438;28;20029;-62
2021/08/06 04:09:01;;;;;;;9.13;6.07;;;16.90;99.90;;;;;;5045469;28;20033;-60
2021/08/06 04:11:27;;;;;;;11.45;6.07;;;16.90;99.90;;;;;;5043440;28;20061;-57
2021/08/06 04:13:53;;;;;;;8.70;4.95;;;16.90;99.90;;;;;;5052193;28;20021;-61
2021/08/06 04:16:18;;;;;;;6.03;5.35;;;16.90;99.90;;;;;;5045755;28;20484;-62
2021/08/06 04:18:44;;;;;;;12.70;5.63;;;16.90;99.90;;;;;;5045962;28;20037;-60
2021/08/06 04:21:10;;;;;;;7.40;4.85;;;16.80;99.90;;;;;;5044934;28;20041;-61
2021/08/06 04:23:35;;;;;;;13.73;5.43;;;16.90;99.90;;;;;;5046546;28;20354;-62
2021/08/06 04:26:01;;;;;;;6.65;5.05;;;16.80;99.90;;;;;;5047341;28;20069;-58
2021/08/06 04:28:27;;;;;;;11.23;5.97;;;16.80;99.90;;;;;;5043996;28;20025;-60
2021/08/06 04:30:52;;;;;;;9.93;5.10;;;16.80;99.90;;;;;;5045266;28;20055;-60
2021/08/06 04:33:18;;;;;;;10.45;5.53;;;16.90;99.90;;;;;;5045258;28;20312;-58
2021/08/06 04:35:44;;;;;;;10.65;5.40;;;16.90;99.90;;;;;;5046429;28;20033;-59
2021/08/06 04:38:10;;;;;;;12.43;5.80;;;16.90;99.90;;;;;;5046373;28;20437;-60
2021/08/06 04:40:37;;;;;;;8.45;5.45;;;16.80;99.90;;;;;;5042959;28;20048;-62
2021/08/06 04:43:02;;;;;;;6.90;5.53;;;16.80;99.90;;;;;;5049721;28;20032;-62
2021/08/06 04:45:28;;;;;;;10.75;5.55;;;16.80;99.90;;;;;;5045585;28;20492;-60
2021/08/06 04:48:00;;;;;;;10.25;5.45;;;16.80;99.90;;;;;;5043529;28;20163;-59
2021/08/06 04:50:27;;;;;;;9.55;6.43;;;16.80;99.90;;;;;;5041431;28;20025;-59
2021/08/06 04:52:52;;;;;;;14.68;6.18;;;16.80;99.90;;;;;;5043772;28;20510;-61
2021/08/06 04:55:18;;;;;;;9.52;6.20;;;16.80;99.90;;;;;;5043123;28;20017;-60
2021/08/06 04:57:45;;;;;;;9.82;6.13;;;16.80;99.90;;;;;;5043360;28;20033;-59
2021/08/06 05:00:11;;;;;;;10.32;5.82;;;16.90;99.90;;;;;;5043668;28;20403;-60
2021/08/06 05:02:36;;;;;;;11.30;6.38;;;16.90;99.90;;;;;;5041921;28;20517;-57
2021/08/06 05:05:03;;;;;;;9.40;5.75;;;16.90;99.90;;;;;;5043518;28;20033;-58
2021/08/06 05:07:29;;;;;;;8.32;5.40;;;17.00;99.90;;;;;;5043166;28;20032;-62
2021/08/06 05:09:56;;;;;;;11.85;6.05;;;17.00;99.90;;;;;;5042934;28;20445;-61
2021/08/06 05:12:21;;;;;;;14.73;5.43;;;17.00;99.90;;;;;;5047297;28;20068;-58
2021/08/06 05:14:47;;;;;;;7.70;6.05;;;17.00;99.90;;;;;;5044994;28;20500;-60
2021/08/06 05:17:12;;;;;;;11.30;6.38;;;17.00;99.90;;;;;;5043697;28;21074;-55
2021/08/06 05:19:38;;;;;;;17.65;5.55;;;17.00;99.90;;;;;;5042702;28;20021;-58
2021/08/06 05:22:04;;;;;;;15.50;6.22;;;17.00;99.90;;;;;;5046033;28;20029;-62
2021/08/06 05:24:30;;;;;;;12.88;6.40;;;17.00;99.90;;;;;;5043701;28;20407;-57
2021/08/06 05:26:56;;;;;;;13.48;6.88;;;17.00;99.90;;;;;;5045375;28;20025;-63
2021/08/06 05:29:21;;;;;;;14.25;6.20;;;17.10;99.90;;;;;;5046258;28;20558;-61
2021/08/06 05:31:47;;;;;;;11.85;6.53;;;17.10;99.90;;;;;;5047319;28;20031;-64
2021/08/06 05:34:12;;;;;;;14.30;6.72;;;17.10;99.90;;;;;;5049532;28;20052;-62
2021/08/06 05:36:38;;;;;;;13.35;6.20;;;17.10;99.90;;;;;;5053263;28;20052;-62
2021/08/06 05:39:04;;;;;;;8.98;5.47;;;17.10;99.90;;;;;;5053008;28;20044;-64
2021/08/06 05:41:30;;;;;;;8.73;5.88;;;17.10;99.90;;;;;;5054023;28;20091;-60
2021/08/06 05:43:56;;;;;;;7.07;5.28;;;17.10;99.90;;;;;;5055426;28;20057;-64
2021/08/06 05:46:21;;;;;;;11.45;5.78;;;17.10;99.90;;;;;;5052148;28;20036;-61
2021/08/06 05:48:47;;;;;;;8.60;4.63;;;17.10;99.90;;;;;;5056962;28;20033;-64
2021/08/06 05:51:12;;;;;;;6.78;4.55;;;17.10;99.90;;;;;;5059747;28;20035;-64
2021/08/06 05:53:38;;;;;;;8.32;5.00;;;17.10;99.90;;;;;;5057816;28;20029;-64
2021/08/06 05:56:03;;;;;;;7.88;4.60;;;17.10;99.90;;;;;;5057339;28;20055;-65
2021/08/06 05:58:29;;;;;;;8.32;5.25;;;17.10;99.90;;;;;;5054006;28;20081;-68
2021/08/06 06:00:55;;;;;;;10.75;5.97;;;17.10;99.90;;;;;;5057198;28;20028;-65
2021/08/06 06:03:20;;;;;;;10.07;5.45;;;17.20;99.90;;;;;;5052612;28;20029;-64
2021/08/06 06:05:46;;;;;;;12.50;5.93;;;17.20;99.90;;;;;;5053862;28;20039;-64
2021/08/06 06:08:11;;;;;;;10.38;6.00;;;17.20;99.90;;;;;;5052220;28;20041;-65
2021/08/06 06:10:37;;;;;;;9.63;5.88;;;17.30;99.90;;;;;;5066042;28;20029;-64
2021/08/06 06:13:03;;;;;;;12.18;6.47;;;17.30;99.90;;;;;;5051196;28;20031;-64
2021/08/06 06:15:29;;;;;;;13.88;6.63;;;17.40;99.90;;;;;;5049434;28;20120;-62
2021/08/06 06:17:55;;;;;;;13.73;5.68;;;17.40;99.90;;;;;;5048353;28;20067;-61
2021/08/06 06:20:21;;;;;;;13.20;6.25;;;17.40;99.90;;;;;;5050718;28;20033;-63
2021/08/06 06:22:46;;;;;;;9.68;5.78;;;17.40;99.90;;;;;;5056896;28;20060;-64
2021/08/06 06:25:13;;;;;;;10.32;6.25;;;17.50;99.90;;;;;;5050890;28;20094;-64
2021/08/06 06:27:49;;;;;;;11.02;6.35;;;17.60;99.90;;;;;;5046676;28;20179;-63
2021/08/06 06:30:15;;;;;;;15.73;5.30;;;17.60;99.90;;;;;;5051498;28;20497;-64
2021/08/06 06:32:40;;;;;;;8.77;5.88;;;17.60;99.90;;;;;;5052710;28;20044;-64
2021/08/06 06:35:06;;;;;;;10.93;5.50;;;17.60;99.90;;;;;;5053722;28;20040;-63
2021/08/06 06:37:32;;;;;;;5.80;4.40;;;17.70;99.90;;;;;;5052383;28;20036;-63
2021/08/06 06:39:57;;;;;;;13.00;4.35;;;17.80;99.90;;;;;;5052124;28;20028;-64
2021/08/06 06:42:23;;;;;;;9.10;4.43;;;17.80;99.90;;;;;;5053170;28;20041;-64
2021/08/06 06:44:48;;;;;;;5.47;3.83;;;17.80;99.90;;;;;;5052047;28;20186;-64
2021/08/06 06:47:14;;;;;;;6.97;3.85;;;17.90;99.90;;;;;;5050761;28;20146;-64
2021/08/06 06:49:39;;;;;;;6.88;4.15;;;18.00;99.90;;;;;;5051795;28;20420;-65
2021/08/06 06:52:05;;;;;;;11.52;3.78;;;18.10;99.90;;;;;;5054598;28;20580;-65
2021/08/06 06:54:30;;;;;;;3.08;2.70;;;18.10;99.90;;;;;;5052264;28;20063;-65
2021/08/06 06:56:56;;;;;;;7.20;2.95;;;18.10;99.90;;;;;;5051623;28;20031;-65
2021/08/06 06:59:22;;;;;;;5.45;3.25;;;18.10;99.90;;;;;;5051963;28;20020;-66
2021/08/06 07:01:47;;;;;;;3.47;2.40;;;18.10;99.90;;;;;;5049706;28;20106;-67
2021/08/06 07:04:13;;;;;;;5.15;2.90;;;18.10;99.90;;;;;;5052677;28;20021;-62
2021/08/06 07:06:38;;;;;;;4.70;2.42;;;18.10;99.90;;;;;;5053767;28;20044;-64
2021/08/06 07:09:08;;;;;;;4.95;2.33;;;18.20;99.90;;;;;;5050900;28;20174;-57
2021/08/06 07:11:34;;;;;;;2.97;1.90;;;18.10;99.90;;;;;;5050079;28;20581;-65
2021/08/06 07:13:59;;;;;;;2.83;2.03;;;18.20;99.90;;;;;;5049150;28;20041;-60
2021/08/06 07:16:25;;;;;;;5.07;1.95;;;18.30;99.90;;;;;;5049608;28;20025;-65
2021/08/06 07:18:50;;;;;;;2.00;1.80;;;18.30;99.90;;;;;;5049864;28;20226;-64
2021/08/06 07:21:16;;;;;;;3.92;1.70;;;18.40;99.90;;;;;;5050641;28;20086;-63
2021/08/06 07:23:41;;;;;;;2.15;1.60;;;18.40;99.90;;;;;;5051988;28;20056;-63
2021/08/06 07:26:07;;;;;;;3.92;1.60;;;18.40;99.90;;;;;;5047136;28;20073;-65
2021/08/06 07:28:33;;;;;;;2.53;1.95;;;18.40;99.90;;;;;;5052139;28;20545;-62
2021/08/06 07:30:58;;;;;;;3.30;1.67;;;18.40;99.90;;;;;;5050112;28;20055;-59
2021/08/06 07:33:24;;;;;;;2.20;1.63;;;18.40;99.90;;;;;;5054723;28;20081;-65
2021/08/06 07:35:49;;;;;;;2.55;1.50;;;18.60;99.90;;;;;;5050943;28;20025;-60
2021/08/06 07:38:15;;;;;;;4.00;1.63;;;18.60;99.90;;;;;;5047337;28;20052;-62
2021/08/06 07:40:40;;;;;;;2.83;1.52;;;18.60;99.90;;;;;;5047985;28;20254;-63
2021/08/06 07:43:06;;;;;;;6.32;1.83;;;18.70;99.90;;;;;;5053021;28;20094;-64
2021/08/06 07:45:31;;;;;;;3.08;1.88;;;18.70;99.90;;;;;;5048410;28;20036;-63
2021/08/06 07:47:57;;;;;;;6.90;3.00;;;18.70;99.90;;;;;;5047861;28;20063;-62
2021/08/06 07:50:23;;;;;;;11.73;3.95;;;18.70;99.90;;;;;;5051951;28;20033;-63
2021/08/06 07:52:49;;;;;;;3.67;1.95;;;18.80;99.90;;;;;;5046917;28;20036;-62
2021/08/06 07:55:16;;;;;;;3.42;1.52;;;18.80;99.90;;;;;;5048336;28;20021;-65
2021/08/06 07:57:42;;;;;;;4.57;1.88;;;18.90;99.90;;;;;;5051988;28;20088;-64
2021/08/06 08:00:08;;;;;;;7.72;3.00;;;18.90;99.90;;;;;;5047717;28;20504;-65
2021/08/06 08:02:36;;;;;;;5.00;1.85;;;19.00;99.90;;;;;;5044730;28;20025;-61
2021/08/06 08:05:02;;;;;;;3.08;1.70;;;19.00;99.90;;;;;;5049786;28;20451;-62
2021/08/06 08:07:28;;;;;;;5.38;2.05;;;19.00;99.90;;;;;;5050661;28;20029;-64
2021/08/06 08:09:53;;;;;;;2.80;1.70;;;19.10;99.90;;;;;;5048497;28;20090;-64
2021/08/06 08:12:19;;;;;;;2.80;1.45;;;19.20;99.90;;;;;;5047659;28;20124;-65
2021/08/06 08:14:47;;;;;;;5.68;2.80;;;19.20;99.90;;;;;;5046258;28;20733;-62
2021/08/06 08:17:14;;;;;;;7.90;1.88;;;19.00;99.90;;;;;;5049459;28;20027;-64
2021/08/06 08:19:39;;;;;;;9.15;2.92;;;19.10;99.90;;;;;;5043112;28;20113;-63
2021/08/06 08:22:05;;;;;;;5.68;1.60;;;19.00;99.90;;;;;;5047936;28;20056;-61
2021/08/06 08:24:32;;;;;;;3.60;1.40;;;18.90;99.90;;;;;;5049969;28;20047;-63
2021/08/06 08:26:58;;;;;;;2.88;1.52;;;19.00;99.90;;;;;;5047223;28;20103;-63
2021/08/06 08:29:23;;;;;;;4.80;2.15;;;18.90;99.90;;;;;;5046905;28;20102;-60
2021/08/06 08:31:49;;;;;;;4.82;1.50;;;18.90;99.90;;;;;;5045429;28;20032;-61
2021/08/06 08:34:14;;;;;;;1.50;1.10;;;18.90;99.90;;;;;;5046893;28;20614;-63
2021/08/06 08:36:40;;;;;;;2.60;1.30;;;18.90;99.90;;;;;;5042921;28;20423;-64
2021/08/06 08:39:06;;;;;;;5.68;1.70;;;18.90;99.90;;;;;;5043163;28;20033;-61
2021/08/06 08:41:32;;;;;;;2.05;1.23;;;18.80;99.90;;;;;;5053212;28;20029;-66
2021/08/06 08:43:57;;;;;;;2.45;1.33;;;18.90;99.90;;;;;;5055531;28;20021;-62
2021/08/06 08:46:29;;;;;;;5.65;1.83;;;18.90;99.90;;;;;;5056788;28;20033;-63
2021/08/06 08:48:57;;;;;;;4.15;1.90;;;18.80;99.90;;;;;;5055967;28;20032;-63
2021/08/06 08:51:25;;;;;;;4.57;1.67;;;18.50;99.90;;;;;;5060097;28;20059;-63
2021/08/06 08:53:50;;;;;;;9.18;1.77;;;18.30;99.90;;;;;;5057105;28;20033;-61
2021/08/06 08:56:16;;;;;;;8.60;1.83;;;18.10;99.90;;;;;;5052388;28;20062;-63
2021/08/06 08:58:42;;;;;;;2.95;1.73;;;18.00;99.90;;;;;;5056072;28;20025;-64
2021/08/06 09:01:07;;;;;;;3.88;1.73;;;17.80;99.90;;;;;;5052352;28;20099;-60
2021/08/06 09:03:48;;;;;;;6.38;2.45;;;17.80;99.90;;;;;;5053802;28;20045;-63
2021/08/06 09:06:17;;;;;;;5.15;2.20;;;17.70;99.90;;;;;;5054472;28;20024;-62
2021/08/06 09:08:44;;;;;;;4.90;2.33;;;17.80;99.90;;;;;;5050052;28;20029;-63
2021/08/06 09:11:29;;;;;;;6.93;1.98;;;17.70;99.90;;;;;;5045780;28;20506;-62
2021/08/06 09:14:14;;;;;;;6.50;2.50;;;17.80;99.90;;;;;;5044668;28;20182;-62
2021/08/06 09:17:04;;;;;;;3.67;2.10;;;17.90;99.90;;;;;;5071232;28;20021;-62
2021/08/06 09:19:44;;;;;;;7.45;2.50;;;18.00;99.90;;;;;;5052419;28;20070;-65
2021/08/06 09:22:22;;;;;;;3.42;1.73;;;18.30;99.90;;;;;;5053980;28;20029;-67
2021/08/06 09:25:14;;;;;;;4.13;1.90;;;18.30;99.90;;;;;;5057638;28;20024;-64
2021/08/06 09:27:47;;;;;;;3.60;2.42;;;18.30;99.90;;;;;;5057970;28;20563;-60
2021/08/06 09:30:35;;;;;;;9.10;2.53;;;18.40;99.90;;;;;;5054432;28;20041;-65
2021/08/06 09:33:02;;;;;;;7.07;2.58;;;18.60;99.90;;;;;;5055893;28;20385;-64
2021/08/06 09:35:30;;;;;;;4.38;2.35;;;18.60;99.90;;;;;;5055931;28;20101;-63
2021/08/06 09:37:57;;;;;;;8.05;2.47;;;18.70;99.90;;;;;;5061855;28;20089;-63
2021/08/06 09:40:28;;;;;;;5.03;2.30;;;18.70;99.90;;;;;;5052482;28;20083;-65
2021/08/06 09:42:55;;;;;;;4.35;2.70;;;19.00;99.90;;;;;;5051441;28;20021;-63
2021/08/06 09:45:25;;;;;;;5.70;2.42;;;19.20;99.90;;;;;;5054202;28;20021;-65
2021/08/06 09:47:55;;;;;;;4.97;1.90;;;19.60;99.90;;;;;;5055977;28;20437;-65
2021/08/06 09:50:31;;;;;;;5.00;2.25;;;19.90;99.90;;;;;;5052028;28;20400;-68
2021/08/06 09:52:57;;;;;;;7.82;2.17;;;20.20;99.90;;;;;;5056265;28;20488;-65
2021/08/06 09:55:32;;;;;;;5.28;2.33;;;20.50;99.90;;;;;;5050695;28;20036;-63
2021/08/06 09:58:02;;;;;;;3.92;2.20;;;20.40;99.90;;;;;;5050985;28;20053;-65
2021/08/06 10:00:29;;;;;;;4.55;1.80;;;20.60;99.90;;;;;;5057428;28;20025;-64
2021/08/06 10:02:56;;;;;;;4.57;1.77;;;20.80;99.90;;;;;;5057494;28;20099;-65
2021/08/06 10:05:24;;;;;;;7.97;2.10;;;21.00;99.90;;;;;;5059065;28;20032;-65
2021/08/06 10:07:52;;;;;;;11.07;3.65;;;21.20;99.90;;;;;;5060834;28;20479;-63
2021/08/06 10:10:24;;;;;;;5.72;2.33;;;21.10;99.90;;;;;;5059772;28;20053;-62
2021/08/06 10:12:51;;;;;;;6.82;2.30;;;21.20;99.90;;;;;;5057279;28;20763;-62
2021/08/06 10:15:19;;;;;;;5.30;2.00;;;21.30;99.90;;;;;;5057546;28;20028;-65
2021/08/06 10:17:47;;;;;;;5.93;2.03;;;21.20;99.90;;;;;;5055268;28;20044;-64
2021/08/06 10:20:15;;;;;;;5.97;2.47;;;21.20;99.90;;;;;;5056333;28;20549;-62
2021/08/06 10:22:41;;;;;;;7.60;2.40;;;21.20;99.90;;;;;;5057561;28;20507;-62
2021/08/06 10:25:10;;;;;;;5.47;2.72;;;21.20;99.90;;;;;;5057429;28;20029;-61
2021/08/06 10:27:39;;;;;;;8.70;2.83;;;21.40;99.90;;;;;;5057772;28;20093;-63
2021/08/06 10:30:10;;;;;;;4.32;2.83;;;21.70;99.90;;;;;;5056356;28;20088;-60
2021/08/06 10:32:37;;;;;;;6.07;2.58;;;21.60;99.90;;;;;;5057064;28;20715;-63
2021/08/06 10:35:02;;;;;;;6.95;2.38;;;21.40;99.90;;;;;;5060465;28;20025;-63
2021/08/06 10:37:48;;;;;;;6.65;2.60;;;21.10;99.90;;;;;;5059073;28;20427;-65
2021/08/06 10:40:37;;;;;;;6.55;2.40;;;21.00;99.90;;;;;;5056087;28;20232;-64
2021/08/06 10:43:39;;;;;;;5.68;2.42;;;21.00;99.90;;;;;;5059802;28;20024;-64
2021/08/06 10:46:06;;;;;;;5.22;2.35;;;21.00;99.90;;;;;;5056987;28;20033;-66
2021/08/06 10:48:34;;;;;;;4.20;2.03;;;20.90;99.90;;;;;;5056612;28;20032;-60
2021/08/06 10:51:15;;;;;;;5.75;2.10;;;21.00;99.90;;;;;;5052286;28;20033;-60
2021/08/06 10:53:41;;;;;;;3.60;1.70;;;21.00;99.90;;;;;;5052174;28;20099;-64
2021/08/06 10:56:16;;;;;;;4.38;1.83;;;21.10;99.90;;;;;;5050733;28;20022;-64
2021/08/06 10:58:51;;;;;;;;;;;21.10;99.90;;;;;;5054316;28;20075;-63
2021/08/06 11:01:30;;;;;;;4.68;1.92;;;21.10;99.90;;;;;;5054055;28;19909;-66
2021/08/06 11:04:00;;;;;;;7.00;2.55;;;21.10;99.90;;;;;;5051885;28;20450;-60
2021/08/06 11:06:33;;;;;;;5.45;2.10;;;21.20;99.90;;;;;;5051385;28;20463;-67
2021/08/06 11:08:59;;;;;;;6.57;2.67;;;21.20;99.90;;;;;;5052102;28;20035;-64
2021/08/06 11:11:45;;;;;;;4.68;2.08;;;21.20;99.90;;;;;;5047687;28;20021;-63
2021/08/06 11:14:16;;;;;;;5.60;2.17;;;21.10;99.90;;;;;;5044479;28;20670;-61
2021/08/06 11:17:03;;;;;;;3.88;1.70;;;21.00;99.90;;;;;;5043619;28;20074;-66
2021/08/06 11:19:40;;;;;;;4.32;2.30;;;21.20;99.90;;;;;;5041379;28;20104;-64
2021/08/06 11:22:23;;;;;;;2.33;1.60;;;21.50;99.90;;;;;;5022766;28;20029;-63
2021/08/06 11:24:52;;;;;;;4.60;1.45;;;22.00;99.90;;;;;;5044275;28;20033;-65
2021/08/06 11:27:20;;;;;;;5.70;1.65;;;22.50;99.90;;;;;;5040384;28;20030;-66
2021/08/06 11:30:05;;;;;;;4.03;1.55;;;22.40;99.90;;;;;;5050777;28;20041;-63
2021/08/06 11:32:51;;;;;;;2.97;1.48;;;22.30;99.90;;;;;;5042201;28;20094;-66
2021/08/06 11:35:19;;;;;;;3.20;1.42;;;22.00;99.90;;;;;;5043613;28;20036;-63
2021/08/06 11:37:51;;;;;;;3.40;1.52;;;21.90;99.90;;;;;;5045698;28;20037;-62
2021/08/06 11:40:19;;;;;;;3.22;1.70;;;21.70;99.90;;;;;;5050580;28;20793;-65
2021/08/06 11:42:44;;;;;;;3.20;1.30;;;21.20;99.90;;;;;;5048200;28;20048;-67
2021/08/06 11:45:13;;;;;;;7.95;1.75;;;20.90;99.90;;;;;;5048573;28;20056;-67
2021/08/06 11:47:44;;;;;;;5.57;1.52;;;20.50;99.90;;;;;;5046293;28;20496;-67
2021/08/06 11:50:16;;;;;;;7.43;1.80;;;20.00;99.90;;;;;;5046524;28;20048;-64
2021/08/06 11:52:47;;;;;;;5.97;1.98;;;19.70;99.90;;;;;;5054006;28;20029;-66
2021/08/06 11:55:15;;;;;;;2.83;1.20;;;19.50;99.90;;;;;;5048721;28;20492;-60
2021/08/06 11:57:52;;;;;;;5.30;1.30;;;19.50;99.90;;;;;;5046854;28;20104;-61
2021/08/06 12:00:29;;;;;;;4.53;1.20;;;19.40;99.90;;;;;;5053340;28;20515;-67
2021/08/06 12:03:13;;;;;;;2.80;1.73;;;19.20;99.90;;;;;;5049817;28;20022;-63
2021/08/06 12:05:55;;;;;;;3.47;1.33;;;19.30;99.90;;;;;;5050152;28;20098;-59
2021/08/06 12:08:25;;;;;;;2.90;1.20;;;19.20;99.90;;;;;;5056701;28;20033;-65
2021/08/06 12:11:07;;;;;;;5.93;1.70;;;19.20;99.90;;;;;;5055752;28;20037;-64
2021/08/06 12:13:46;;;;;;;1.80;1.38;;;19.20;99.90;;;;;;5058523;28;20496;-64
2021/08/06 12:16:13;;;;;;;2.20;1.40;;;19.40;99.90;;;;;;5057794;28;20032;-63
2021/08/06 12:18:41;;;;;;;3.78;1.27;;;19.50;99.90;;;;;;5044401;28;20032;-63
2021/08/06 12:21:13;;;;;;;3.38;1.40;;;19.70;99.90;;;;;;5045826;28;20512;-64
2021/08/06 12:23:43;;;;;;;3.47;1.65;;;19.90;99.90;;;;;;5047381;28;20036;-63
2021/08/06 12:26:37;;;;;;;2.58;1.38;;;20.20;99.90;;;;;;5051146;28;20036;-64
2021/08/06 12:29:18;;;;;;;2.55;1.23;;;20.50;99.90;;;;;;5050259;28;20051;-64
2021/08/06 12:31:54;;;;;;;3.88;1.50;;;20.90;99.90;;;;;;5045893;28;20032;-64
2021/08/06 12:34:41;;;;;;;4.90;1.45;;;21.00;99.90;;;;;;5051417;28;20059;-64
2021/08/06 12:37:17;;;;;;;3.05;1.70;;;21.00;99.90;;;;;;5045387;28;20033;-64
2021/08/06 12:39:46;;;;;;;3.35;1.67;;;20.90;99.90;;;;;;5050416;28;20039;-64
2021/08/06 12:42:14;;;;;;;4.35;1.15;;;21.00;99.90;;;;;;5051854;28;20504;-64
2021/08/06 12:44:51;;;;;;;3.15;1.52;;;20.90;99.90;;;;;;5049855;28;20060;-63
2021/08/06 12:47:17;;;;;;;14.18;1.80;;;21.00;99.90;;;;;;5050382;28;20055;-63
2021/08/06 12:50:01;;;;;;;11.85;2.13;;;21.10;99.90;;;;;;5050934;28;20033;-64
2021/08/06 12:52:37;;;;;;;5.95;1.50;;;21.20;99.90;;;;;;5045794;28;20068;-64